Terminal Aerodrome Forecast
Issued by NWS

Home | Current Version | Previous Version | Text Only | Print | Product List | Glossary On
Versions: 1 2 3 4 5 6 7 8 9 10 11 12 13 14 15 16 17 18 19 20 21 22 23 24 25 26 27
000
FTUS42 KMFL 301720
TAFOPF
TAF
KOPF 301720Z 3018/0118 12020KT P6SM SCT025 BKN050
     FM010100 12010KT P6SM SCT025 BKN050
     FM011400 13010KT P6SM SCT025 BKN050=

USA.gov is the U.S. government's official web portal to all federal, state and local government web resources and services.